Time;durP1;ratioP1;P1;durP2;ratioP2;P2;SDS_P1;SDS_P2;PMS_P1;PMS_P2;Temp;Humidity;BMP_temperature;BMP_pressure;BME280_temperature;BME280_humidity;BME280_pressure;Samples;Min_cycle;Max_cycle;Signal;HPM_P1;HPM_P2
2022/02/08 00:00:14;;;;;;;1.60;1.30;;;6.30;98.20;;;;;;5028197;28;20537;-75
2022/02/08 00:02:44;;;;;;;1.60;1.30;;;6.30;98.20;;;;;;5031774;28;20482;-75
2022/02/08 00:05:14;;;;;;;1.70;1.50;;;6.30;98.20;;;;;;5021424;28;20467;-74
2022/02/08 00:07:45;;;;;;;1.60;1.23;;;6.30;98.20;;;;;;5032399;28;20502;-74
2022/02/08 00:10:13;;;;;;;1.60;1.20;;;6.30;98.20;;;;;;5027846;28;20487;-74
2022/02/08 00:12:41;;;;;;;1.63;1.30;;;6.30;98.20;;;;;;5021752;28;20485;-75
2022/02/08 00:15:09;;;;;;;1.60;1.30;;;6.40;98.20;;;;;;5028285;28;20467;-75
2022/02/08 00:17:36;;;;;;;1.60;1.40;;;6.40;98.20;;;;;;5033297;28;20482;-74
2022/02/08 00:20:06;;;;;;;1.60;1.30;;;6.40;98.20;;;;;;5028084;28;20533;-75
2022/02/08 00:22:35;;;;;;;1.60;1.30;;;6.40;98.20;;;;;;5024157;28;20545;-75
2022/02/08 00:25:02;;;;;;;1.60;1.30;;;6.40;98.20;;;;;;5025554;28;20525;-75
2022/02/08 00:27:28;;;;;;;1.60;1.20;;;6.50;98.20;;;;;;5033321;28;20501;-75
2022/02/08 00:29:56;;;;;;;1.60;1.30;;;6.50;98.20;;;;;;5030819;28;20837;-75
2022/02/08 00:32:22;;;;;;;1.60;1.20;;;6.50;98.20;;;;;;5030085;28;20510;-75
2022/02/08 00:34:49;;;;;;;1.60;1.33;;;6.50;98.20;;;;;;5031494;28;20468;-75
2022/02/08 00:37:16;;;;;;;1.60;1.20;;;6.50;98.20;;;;;;5031716;28;20490;-75
2022/02/08 00:39:44;;;;;;;1.57;1.20;;;6.60;98.20;;;;;;5030750;28;20471;-74
2022/02/08 00:42:12;;;;;;;1.63;1.40;;;6.60;98.20;;;;;;5030996;28;20474;-74
2022/02/08 00:44:45;;;;;;;1.60;1.30;;;6.60;98.20;;;;;;5031718;28;20462;-74
2022/02/08 00:47:19;;;;;;;1.60;1.40;;;6.60;98.20;;;;;;5030726;28;20512;-74
2022/02/08 00:49:47;;;;;;;1.60;1.30;;;6.60;98.20;;;;;;5028467;28;20466;-74
2022/02/08 00:52:15;;;;;;;1.60;1.20;;;6.50;98.20;;;;;;5023391;28;20489;-74
2022/02/08 00:54:44;;;;;;;1.60;1.27;;;6.50;98.20;;;;;;5025525;28;20881;-74
2022/02/08 00:57:12;;;;;;;1.60;1.20;;;6.50;98.20;;;;;;5028007;28;20891;-74
2022/02/08 00:59:39;;;;;;;1.60;1.30;;;6.50;98.20;;;;;;5028689;28;20547;-74
2022/02/08 01:02:06;;;;;;;1.60;1.20;;;6.40;98.20;;;;;;5026435;28;20506;-74
2022/02/08 01:04:33;;;;;;;1.60;1.40;;;6.40;98.20;;;;;;5026759;28;20459;-74
2022/02/08 01:07:01;;;;;;;1.60;1.27;;;6.40;98.20;;;;;;5028648;28;20486;-73
2022/02/08 01:09:39;;;;;;;1.60;1.30;;;6.30;98.20;;;;;;5037059;28;20459;-74
2022/02/08 01:12:08;;;;;;;1.60;1.20;;;6.30;98.20;;;;;;5025130;28;20570;-74
2022/02/08 01:14:39;;;;;;;1.60;1.27;;;6.30;98.20;;;;;;5028465;28;20498;-74
2022/02/08 01:17:06;;;;;;;1.60;1.30;;;6.30;98.20;;;;;;5030781;28;20848;-73
2022/02/08 01:19:34;;;;;;;1.60;1.20;;;6.30;98.20;;;;;;5035751;28;21004;-74
2022/02/08 01:22:01;;;;;;;1.80;1.70;;;6.30;98.20;;;;;;5026175;28;20993;-72
2022/02/08 01:24:28;;;;;;;1.60;1.40;;;6.30;98.20;;;;;;5032837;28;20466;-72
2022/02/08 01:27:01;;;;;;;1.60;1.40;;;6.20;98.20;;;;;;5026409;28;21003;-71
2022/02/08 01:29:39;;;;;;;1.60;1.30;;;6.20;98.20;;;;;;5030248;28;20459;-72
2022/02/08 01:32:20;;;;;;;1.60;1.30;;;6.20;98.20;;;;;;5032544;28;20470;-71
2022/02/08 01:34:59;;;;;;;1.60;1.20;;;6.20;98.20;;;;;;5035088;28;20497;-71
2022/02/08 01:37:39;;;;;;;1.60;1.20;;;6.20;98.20;;;;;;5034710;28;20486;-71
2022/02/08 01:40:16;;;;;;;1.67;1.40;;;6.20;98.20;;;;;;5029061;28;20462;-71
2022/02/08 01:42:52;;;;;;;1.60;1.30;;;6.20;98.20;;;;;;5025907;28;20481;-71
2022/02/08 01:45:40;;;;;;;1.60;1.20;;;6.20;98.20;;;;;;5030573;28;20823;-72
2022/02/08 01:48:10;;;;;;;1.60;1.30;;;6.20;98.20;;;;;;5036006;28;20902;-71
2022/02/08 01:50:37;;;;;;;1.60;1.30;;;6.20;98.20;;;;;;5030174;28;20463;-71
2022/02/08 01:53:05;;;;;;;1.60;1.27;;;6.20;98.20;;;;;;5035808;28;20480;-71
2022/02/08 01:55:33;;;;;;;1.60;1.40;;;6.20;98.20;;;;;;5030329;28;20483;-71
2022/02/08 01:58:01;;;;;;;1.60;1.30;;;6.20;98.20;;;;;;5038666;28;20486;-71
2022/02/08 02:00:30;;;;;;;1.60;1.23;;;6.20;98.20;;;;;;5029692;28;20467;-71
2022/02/08 02:02:57;;;;;;;1.60;1.30;;;6.20;98.20;;;;;;5025659;28;20490;-72
2022/02/08 02:05:23;;;;;;;1.60;1.30;;;6.30;98.20;;;;;;5027528;28;20475;-72
2022/02/08 02:07:51;;;;;;;1.67;1.30;;;6.30;98.20;;;;;;5028434;28;20880;-71
2022/02/08 02:10:21;;;;;;;1.60;1.30;;;6.30;98.20;;;;;;5018563;28;20533;-72
2022/02/08 02:12:53;;;;;;;1.63;1.40;;;6.30;98.20;;;;;;5028489;28;20483;-71
2022/02/08 02:15:20;;;;;;;1.60;1.30;;;6.30;98.20;;;;;;5027297;28;20525;-72
2022/02/08 02:17:49;;;;;;;1.60;1.20;;;6.30;98.20;;;;;;5021833;28;20479;-71
2022/02/08 02:20:15;;;;;;;1.60;1.20;;;6.30;98.20;;;;;;5024877;28;20666;-71
2022/02/08 02:22:42;;;;;;;1.60;1.20;;;6.30;98.20;;;;;;5030587;28;20584;-71
2022/02/08 02:25:26;;;;;;;1.63;1.40;;;6.30;98.20;;;;;;5028492;28;20458;-71
2022/02/08 02:27:54;;;;;;;1.60;1.30;;;6.40;98.20;;;;;;5029601;28;20487;-71
2022/02/08 02:30:21;;;;;;;1.60;1.40;;;6.40;98.20;;;;;;5025903;28;20506;-71
2022/02/08 02:32:48;;;;;;;1.60;1.30;;;6.40;98.20;;;;;;5040750;28;20478;-72
2022/02/08 02:35:15;;;;;;;1.60;1.27;;;6.40;98.20;;;;;;5029958;28;21026;-71
2022/02/08 02:37:41;;;;;;;1.60;1.20;;;6.40;98.20;;;;;;5029195;28;20846;-71
2022/02/08 02:40:10;;;;;;;1.60;1.30;;;6.40;98.20;;;;;;5026362;28;20868;-71
2022/02/08 02:42:38;;;;;;;1.60;1.20;;;6.40;98.20;;;;;;5038251;28;20486;-71
2022/02/08 02:45:07;;;;;;;1.60;1.20;;;6.50;98.20;;;;;;5028697;28;20478;-71
2022/02/08 02:47:34;;;;;;;1.60;1.30;;;6.50;98.20;;;;;;5013415;28;20582;-71
2022/02/08 02:50:01;;;;;;;1.60;1.20;;;6.50;98.20;;;;;;5029470;28;20463;-71
2022/02/08 02:52:28;;;;;;;1.60;1.30;;;6.50;98.20;;;;;;5024641;28;20706;-71
2022/02/08 02:54:54;;;;;;;1.60;1.30;;;6.60;98.20;;;;;;5028743;28;20633;-71
2022/02/08 02:57:24;;;;;;;1.60;1.20;;;6.60;98.20;;;;;;5030802;28;20485;-71
2022/02/08 03:00:00;;;;;;;1.60;1.30;;;6.60;98.20;;;;;;5032233;28;20467;-71
2022/02/08 03:02:37;;;;;;;1.60;1.30;;;6.60;98.20;;;;;;5030975;28;21030;-71
2022/02/08 03:05:13;;;;;;;1.60;1.30;;;6.70;98.20;;;;;;5028978;28;20494;-72
2022/02/08 03:18:40;;;;;;;1.60;1.30;;;6.80;98.20;;;;;;5016220;28;20491;-71
2022/02/08 03:21:09;;;;;;;1.60;1.30;;;6.80;98.20;;;;;;5019202;28;20565;-72
2022/02/08 03:23:36;;;;;;;1.60;1.20;;;6.90;98.20;;;;;;5036150;28;20674;-71
2022/02/08 03:26:03;;;;;;;1.60;1.30;;;6.90;98.20;;;;;;5019159;28;20490;-71
2022/02/08 03:28:30;;;;;;;1.60;1.30;;;6.90;98.20;;;;;;5042971;28;20463;-72
2022/02/08 03:30:58;;;;;;;1.60;1.40;;;6.90;98.20;;;;;;5019964;28;21017;-72
2022/02/08 03:33:26;;;;;;;1.60;1.20;;;6.90;98.20;;;;;;5035951;28;20472;-71
2022/02/08 03:35:55;;;;;;;1.60;1.30;;;6.90;98.20;;;;;;5019664;28;20487;-72
2022/02/08 03:38:29;;;;;;;1.60;1.30;;;7.00;98.20;;;;;;5039600;28;20471;-71
2022/02/08 03:40:56;;;;;;;1.60;1.30;;;7.00;98.20;;;;;;5019657;28;20890;-72
2022/02/08 03:43:32;;;;;;;1.60;1.20;;;7.00;98.20;;;;;;5044601;28;20478;-71
2022/02/08 03:46:05;;;;;;;1.60;1.30;;;7.00;98.20;;;;;;5020606;28;20545;-71
2022/02/08 03:48:34;;;;;;;1.60;1.30;;;7.10;98.20;;;;;;5041166;28;20467;-71
2022/02/08 03:51:10;;;;;;;1.60;1.30;;;7.10;98.20;;;;;;5016295;28;20999;-72
2022/02/08 03:53:38;;;;;;;1.60;1.20;;;7.10;98.20;;;;;;5029816;28;20486;-71
2022/02/08 03:56:07;;;;;;;1.60;1.40;;;7.10;98.20;;;;;;5018097;28;20501;-71
2022/02/08 03:58:34;;;;;;;1.60;1.40;;;7.10;98.20;;;;;;5040888;28;20558;-72
2022/02/08 04:01:43;;;;;;;1.60;1.20;;;7.10;98.20;;;;;;5020308;28;20471;-72
2022/02/08 04:04:15;;;;;;;1.60;1.20;;;7.20;98.20;;;;;;5032786;28;20646;-73
2022/02/08 04:06:44;;;;;;;1.60;1.20;;;7.20;98.20;;;;;;5020817;28;20889;-72
2022/02/08 04:09:11;;;;;;;1.60;1.20;;;7.20;98.20;;;;;;5024963;28;20724;-72
2022/02/08 04:11:51;;;;;;;1.60;1.20;;;7.20;98.20;;;;;;5020712;28;21021;-71
2022/02/08 04:14:27;;;;;;;1.60;1.37;;;7.20;98.20;;;;;;5032416;28;20865;-72
2022/02/08 04:17:00;;;;;;;1.60;1.30;;;7.30;98.20;;;;;;5016915;28;20498;-72
2022/02/08 04:19:32;;;;;;;1.60;1.30;;;7.30;98.20;;;;;;5026153;28;20463;-71
2022/02/08 04:33:08;;;;;;;1.60;1.20;;;7.30;98.20;;;;;;5020862;28;20565;-72
2022/02/08 04:35:57;;;;;;;1.60;1.30;;;7.30;98.20;;;;;;5027238;28;20494;-72
2022/02/08 04:38:37;;;;;;;1.60;1.40;;;7.30;98.20;;;;;;5016803;28;20571;-72
2022/02/08 04:41:07;;;;;;;1.60;1.20;;;7.30;98.20;;;;;;5018061;28;20962;-74
2022/02/08 04:43:42;;;;;;;1.60;1.30;;;7.30;98.20;;;;;;5028592;28;20556;-74
2022/02/08 04:46:20;;;;;;;1.60;1.30;;;7.30;98.20;;;;;;5022338;28;20493;-74
2022/02/08 04:48:53;;;;;;;3.63;3.43;;;7.40;98.20;;;;;;5036378;28;20466;-74
2022/02/08 04:51:26;;;;;;;1.60;1.20;;;7.30;98.20;;;;;;5019435;28;21006;-75
2022/02/08 04:54:01;;;;;;;1.60;1.30;;;7.30;98.20;;;;;;5031551;28;20455;-74
2022/02/08 04:56:34;;;;;;;1.60;1.33;;;7.40;98.20;;;;;;5022331;28;20485;-73
2022/02/08 04:59:14;;;;;;;1.60;1.20;;;7.40;98.20;;;;;;5037399;28;20471;-73
2022/02/08 05:01:57;;;;;;;1.60;1.20;;;7.40;98.20;;;;;;5024568;28;20490;-73
2022/02/08 05:26:56;;;;;;;1.60;1.30;;;7.50;98.20;;;;;;5023264;28;20486;-74
2022/02/08 05:43:25;;;;;;;1.60;1.23;;;7.50;98.20;;;;;;4965597;28;21055;-74
2022/02/08 05:46:26;;;;;;;1.60;1.20;;;7.50;98.20;;;;;;5009587;28;20482;-72
2022/02/08 05:48:52;;;;;;;1.60;1.30;;;7.60;98.20;;;;;;5036730;28;20459;-72
2022/02/08 05:51:22;;;;;;;1.60;1.10;;;7.60;98.20;;;;;;5015089;28;20478;-72
2022/02/08 05:53:50;;;;;;;1.60;1.20;;;7.60;98.20;;;;;;5029887;28;21187;-74
2022/02/08 05:56:18;;;;;;;1.60;1.20;;;7.60;98.20;;;;;;5023462;28;20479;-74
2022/02/08 05:58:46;;;;;;;1.60;1.30;;;7.60;98.20;;;;;;5042025;28;20497;-74
2022/02/08 06:01:14;;;;;;;1.60;1.23;;;7.70;98.20;;;;;;5023902;28;20482;-75
2022/02/08 06:03:40;;;;;;;1.60;1.20;;;7.60;98.20;;;;;;5031927;28;20905;-74
2022/02/08 06:06:07;;;;;;;1.60;1.37;;;7.70;98.20;;;;;;5017877;28;20880;-73
2022/02/08 06:08:34;;;;;;;1.60;1.27;;;7.70;98.20;;;;;;5039790;28;20459;-74
2022/02/08 06:11:12;;;;;;;1.60;1.20;;;7.70;98.20;;;;;;5022361;28;20463;-73
2022/02/08 06:13:41;;;;;;;1.60;1.30;;;7.70;98.20;;;;;;5047056;28;20799;-73
2022/02/08 06:16:16;;;;;;;1.60;1.30;;;7.70;98.20;;;;;;5021184;28;20605;-73
2022/02/08 06:18:42;;;;;;;1.60;1.30;;;7.70;98.20;;;;;;5021308;28;20489;-73
2022/02/08 06:21:10;;;;;;;1.60;1.20;;;7.70;98.20;;;;;;5021919;28;20485;-73
2022/02/08 06:23:36;;;;;;;1.60;1.20;;;7.70;98.20;;;;;;5036382;28;20469;-74
2022/02/08 06:26:06;;;;;;;1.60;1.20;;;7.70;98.20;;;;;;5028219;28;20486;-74
2022/02/08 06:28:33;;;;;;;1.60;1.30;;;7.70;98.20;;;;;;5043226;28;20459;-73
2022/02/08 06:31:00;;;;;;;1.60;1.30;;;7.70;98.20;;;;;;5019184;28;20463;-73
2022/02/08 06:33:27;;;;;;;1.60;1.20;;;7.70;98.20;;;;;;5030808;28;20470;-73
2022/02/08 06:35:53;;;;;;;1.60;1.20;;;7.70;98.20;;;;;;5017661;28;20483;-73
2022/02/08 06:38:20;;;;;;;1.60;1.20;;;7.70;98.20;;;;;;5039548;28;20464;-73
2022/02/08 06:40:50;;;;;;;1.60;1.30;;;7.70;98.20;;;;;;5026472;28;20474;-73
2022/02/08 06:43:20;;;;;;;1.60;1.43;;;7.70;98.20;;;;;;5044364;28;20518;-74
2022/02/08 06:45:47;;;;;;;1.60;1.30;;;7.70;98.20;;;;;;5024410;28;20502;-73
2022/02/08 06:48:14;;;;;;;1.60;1.20;;;7.70;98.20;;;;;;5017829;28;20467;-75
2022/02/08 06:50:41;;;;;;;1.60;1.40;;;7.70;98.20;;;;;;5027767;28;20803;-75
2022/02/08 06:53:07;;;;;;;1.57;1.10;;;7.80;98.20;;;;;;5025619;28;20585;-73
2022/02/08 06:55:34;;;;;;;1.60;1.30;;;7.80;98.20;;;;;;5027146;28;20494;-74
2022/02/08 06:58:03;;;;;;;1.60;1.30;;;7.80;98.20;;;;;;5032773;28;20553;-73
2022/02/08 07:00:35;;;;;;;1.60;1.27;;;7.80;98.20;;;;;;5026150;28;20513;-73
2022/02/08 07:03:05;;;;;;;1.60;1.30;;;7.80;98.20;;;;;;5028223;28;20514;-73
2022/02/08 07:05:31;;;;;;;1.60;1.20;;;7.80;98.20;;;;;;5029222;28;20495;-73
2022/02/08 07:07:59;;;;;;;1.60;1.30;;;7.80;98.20;;;;;;5034541;28;20486;-73
2022/02/08 07:10:27;;;;;;;1.60;1.40;;;7.90;98.20;;;;;;5028656;28;21062;-72
2022/02/08 07:12:54;;;;;;;1.60;1.20;;;7.90;98.20;;;;;;5037557;28;20892;-73
2022/02/08 07:15:21;;;;;;;1.60;1.20;;;7.90;98.20;;;;;;5026972;28;20502;-73
2022/02/08 07:17:50;;;;;;;1.60;1.20;;;7.90;98.20;;;;;;5034167;28;20547;-72
2022/02/08 07:20:17;;;;;;;1.60;1.27;;;7.90;98.20;;;;;;5029088;28;20958;-73
2022/02/08 07:22:44;;;;;;;1.60;1.20;;;8.00;98.20;;;;;;5030063;28;20485;-73
2022/02/08 07:25:11;;;;;;;1.60;1.20;;;8.00;98.20;;;;;;5028110;28;20459;-73
2022/02/08 07:27:38;;;;;;;1.60;1.20;;;8.00;98.20;;;;;;5034471;28;20495;-74
2022/02/08 07:30:10;;;;;;;1.60;1.20;;;8.00;98.20;;;;;;5030139;28;20462;-73
2022/02/08 07:32:38;;;;;;;1.60;1.20;;;8.00;98.20;;;;;;5034842;28;20490;-72
2022/02/08 07:35:23;;;;;;;1.60;1.30;;;8.00;98.20;;;;;;5027775;28;20900;-74
2022/02/08 07:37:53;;;;;;;1.60;1.30;;;8.10;98.20;;;;;;5034698;28;20482;-74
2022/02/08 07:40:28;;;;;;;1.60;1.20;;;8.10;98.20;;;;;;5028698;28;20476;-73
2022/02/08 07:42:55;;;;;;;1.60;1.20;;;8.10;98.20;;;;;;5020482;28;20489;-73
2022/02/08 07:45:23;;;;;;;1.60;1.20;;;8.20;98.20;;;;;;5028904;28;20471;-74
2022/02/08 07:47:51;;;;;;;1.60;1.30;;;8.20;98.20;;;;;;5033669;28;21339;-73
2022/02/08 07:50:20;;;;;;;1.60;1.10;;;8.20;98.20;;;;;;5026202;28;20470;-74
2022/02/08 07:52:50;;;;;;;1.60;1.30;;;8.20;98.20;;;;;;5023587;28;20542;-74
2022/02/08 07:55:17;;;;;;;1.60;1.10;;;8.30;98.20;;;;;;5026978;28;20513;-73
2022/02/08 07:57:43;;;;;;;1.60;1.30;;;8.30;98.20;;;;;;5020344;28;20491;-74
2022/02/08 08:00:11;;;;;;;1.60;1.20;;;8.30;98.20;;;;;;5025754;28;20471;-74
2022/02/08 08:02:38;;;;;;;1.60;1.20;;;8.30;98.20;;;;;;5028200;28;20478;-73
2022/02/08 08:05:06;;;;;;;1.60;1.30;;;8.40;98.20;;;;;;5026465;28;20476;-73
2022/02/08 08:07:35;;;;;;;1.60;1.20;;;8.40;98.20;;;;;;5036325;28;20490;-75
2022/02/08 08:10:03;;;;;;;1.60;1.33;;;8.40;98.20;;;;;;5026870;28;20470;-73
2022/02/08 08:12:34;;;;;;;1.60;1.20;;;8.50;98.20;;;;;;5033079;28;20510;-74
2022/02/08 08:15:09;;;;;;;1.60;1.20;;;8.50;98.20;;;;;;5021917;28;20495;-73
2022/02/08 08:17:52;;;;;;;1.60;1.10;;;8.50;98.20;;;;;;5032919;28;20834;-73
2022/02/08 08:20:19;;;;;;;1.60;1.20;;;8.50;98.20;;;;;;5026296;28;20530;-73
2022/02/08 08:22:47;;;;;;;1.60;1.20;;;8.60;98.20;;;;;;5030212;28;20582;-73
2022/02/08 08:25:14;;;;;;;1.60;1.20;;;8.60;98.20;;;;;;5026742;28;21038;-74
2022/02/08 08:27:41;;;;;;;1.60;1.17;;;8.60;98.20;;;;;;5035059;28;20493;-73
2022/02/08 08:30:09;;;;;;;1.60;1.20;;;8.60;98.20;;;;;;5025112;28;20582;-74
2022/02/08 08:32:36;;;;;;;1.60;1.20;;;8.60;98.20;;;;;;5028413;28;21026;-73
2022/02/08 08:35:07;;;;;;;1.60;1.30;;;8.60;98.20;;;;;;5029030;28;20494;-74
2022/02/08 08:37:39;;;;;;;1.60;1.17;;;8.60;98.20;;;;;;5028830;28;20491;-74
2022/02/08 08:40:18;;;;;;;1.60;1.20;;;8.70;98.20;;;;;;5025982;28;20554;-74
2022/02/08 08:42:54;;;;;;;1.60;1.20;;;8.70;98.20;;;;;;5030644;28;20477;-74
2022/02/08 08:51:03;;;;;;;1.60;1.20;;;8.80;98.20;;;;;;5016764;28;20463;-74
2022/02/08 08:53:32;;;;;;;1.60;1.17;;;8.90;98.20;;;;;;5041131;28;20537;-74
2022/02/08 08:56:01;;;;;;;1.60;1.20;;;8.90;98.20;;;;;;5510290;23;22426;-78
2022/02/08 08:58:30;;;;;;;1.60;1.10;;;9.00;98.20;;;;;;4996435;28;20485;-78
2022/02/08 09:00:59;;;;;;;1.60;1.30;;;9.00;98.20;;;;;;4976336;28;20839;-77
2022/02/08 09:03:26;;;;;;;1.60;1.20;;;9.00;98.20;;;;;;5001473;28;20468;-77
2022/02/08 09:05:54;;;;;;;1.60;1.20;;;9.10;98.20;;;;;;4973524;28;20821;-77
2022/02/08 09:08:22;;;;;;;1.60;1.17;;;9.10;98.20;;;;;;4971499;28;20532;-75
2022/02/08 09:10:56;;;;;;;1.60;1.30;;;9.20;98.20;;;;;;4957899;28;20462;-74
2022/02/08 09:13:29;;;;;;;1.60;1.10;;;9.20;98.20;;;;;;5004377;28;20538;-75
2022/02/08 09:16:03;;;;;;;1.63;1.30;;;9.20;98.20;;;;;;4993489;28;20499;-76
2022/02/08 09:21:30;;;;;;;1.67;1.30;;;9.30;98.20;;;;;;4990843;28;20882;-75
2022/02/08 09:29:46;;;;;;;1.60;1.20;;;9.40;98.20;;;;;;5007294;28;20455;-74
2022/02/08 09:32:16;;;;;;;1.60;1.20;;;9.50;98.20;;;;;;4997228;28;20479;-74
2022/02/08 09:34:45;;;;;;;1.60;1.10;;;9.50;98.20;;;;;;5006711;28;20476;-77
2022/02/08 09:37:13;;;;;;;1.63;1.20;;;9.60;98.20;;;;;;4994741;28;20855;-74
2022/02/08 09:39:41;;;;;;;1.60;1.20;;;9.60;98.20;;;;;;5006110;28;20471;-73
2022/02/08 09:42:09;;;;;;;1.60;1.10;;;9.60;98.20;;;;;;4993580;28;20484;-73
2022/02/08 09:44:37;;;;;;;1.70;1.30;;;9.70;98.20;;;;;;5006904;28;20514;-74
2022/02/08 09:47:11;;;;;;;1.67;1.30;;;9.70;98.20;;;;;;4993691;28;20962;-73
2022/02/08 09:49:42;;;;;;;2.63;2.43;;;9.70;98.20;;;;;;5008774;28;20518;-73
2022/02/08 09:52:10;;;;;;;1.60;1.10;;;9.80;98.20;;;;;;4997980;28;20649;-74
2022/02/08 09:54:38;;;;;;;1.60;1.23;;;9.80;98.20;;;;;;5010724;28;21206;-73
2022/02/08 09:57:05;;;;;;;1.60;1.10;;;9.80;98.20;;;;;;4988281;28;20480;-73
2022/02/08 09:59:33;;;;;;;1.60;1.10;;;9.80;98.20;;;;;;5002971;28;20470;-73
2022/02/08 10:02:00;;;;;;;1.60;1.13;;;9.80;98.20;;;;;;4996135;28;21024;-76
2022/02/08 10:04:28;;;;;;;1.60;1.00;;;9.90;98.20;;;;;;5006573;28;20464;-75
2022/02/08 10:06:55;;;;;;;1.60;1.20;;;9.90;98.20;;;;;;4995856;28;21093;-75
2022/02/08 10:09:31;;;;;;;1.63;1.20;;;9.90;98.20;;;;;;5006712;28;20472;-75
2022/02/08 10:11:59;;;;;;;1.70;1.30;;;9.90;98.20;;;;;;4995266;28;20565;-75
2022/02/08 10:14:38;;;;;;;1.63;1.23;;;9.90;98.20;;;;;;5005698;28;20559;-75
2022/02/08 10:22:47;;;;;;;1.70;1.27;;;9.90;98.20;;;;;;4991688;28;21003;-75
2022/02/08 10:25:23;;;;;;;1.63;1.20;;;9.90;98.20;;;;;;5005429;28;20463;-73
2022/02/08 10:28:01;;;;;;;1.60;1.13;;;10.00;98.20;;;;;;4995445;28;20528;-73
2022/02/08 10:30:46;;;;;;;1.60;1.10;;;10.00;98.20;;;;;;5007522;28;20464;-73
2022/02/08 10:38:45;;;;;;;1.60;1.00;;;10.10;98.20;;;;;;5005052;28;20611;-73
2022/02/08 10:41:13;;;;;;;1.60;1.20;;;10.10;98.20;;;;;;4997554;28;20507;-75
2022/02/08 10:43:42;;;;;;;1.60;1.10;;;10.10;98.20;;;;;;5004841;28;20464;-72
2022/02/08 10:46:19;;;;;;;1.60;1.10;;;10.10;98.20;;;;;;4994896;28;20544;-75
2022/02/08 10:48:47;;;;;;;1.60;1.10;;;10.20;98.20;;;;;;5007019;28;20456;-77
2022/02/08 10:51:17;;;;;;;1.70;1.20;;;10.20;98.20;;;;;;5000630;28;20515;-78
2022/02/08 10:53:55;;;;;;;1.60;1.10;;;10.20;98.20;;;;;;5010253;28;20901;-73
2022/02/08 10:56:25;;;;;;;1.60;1.10;;;10.20;98.20;;;;;;4996084;28;20593;-74
2022/02/08 10:59:04;;;;;;;1.60;1.10;;;10.20;98.20;;;;;;5005801;28;20464;-75
2022/02/08 11:01:35;;;;;;;1.60;1.20;;;10.30;98.20;;;;;;4994613;28;20487;-73
2022/02/08 11:04:08;;;;;;;1.60;1.10;;;10.30;98.20;;;;;;5002763;28;20504;-73
2022/02/08 11:06:49;;;;;;;1.60;1.10;;;10.40;98.20;;;;;;4992704;28;20998;-76
2022/02/08 11:09:26;;;;;;;1.60;1.13;;;10.40;98.20;;;;;;5003668;28;20463;-72
2022/02/08 11:12:03;;;;;;;1.60;1.10;;;10.50;98.20;;;;;;4993077;28;20495;-74
2022/02/08 11:14:46;;;;;;;1.63;1.20;;;10.50;98.20;;;;;;5007103;28;20489;-73
2022/02/08 11:17:47;;;;;;;1.60;1.10;;;10.50;98.20;;;;;;4993422;28;20483;-75
2022/02/08 11:20:24;;;;;;;1.60;1.10;;;10.60;98.20;;;;;;5002137;28;20460;-75
2022/02/08 11:22:57;;;;;;;1.63;1.10;;;10.60;98.20;;;;;;4997721;28;20475;-75
2022/02/08 11:25:28;;;;;;;1.60;1.10;;;10.60;98.20;;;;;;5005238;28;21271;-77
2022/02/08 11:28:07;;;;;;;1.60;1.10;;;10.70;98.20;;;;;;4995092;28;20502;-74
2022/02/08 11:30:45;;;;;;;1.63;1.10;;;10.70;98.20;;;;;;5004476;28;20705;-78
2022/02/08 11:33:33;;;;;;;1.63;1.20;;;10.70;98.20;;;;;;4993807;28;20488;-77
2022/02/08 11:39:12;;;;;;;1.60;1.10;;;10.80;98.20;;;;;;5001548;28;20449;-73
2022/02/08 11:47:51;;;;;;;1.70;1.30;;;10.90;98.20;;;;;;4961573;28;20873;-73
2022/02/08 11:50:42;;;;;;;1.63;1.10;;;10.90;98.20;;;;;;5002798;28;20465;-73
2022/02/08 11:53:20;;;;;;;1.63;1.13;;;10.90;98.20;;;;;;4993786;28;20488;-75
2022/02/08 11:58:48;;;;;;;1.60;1.20;;;10.90;98.20;;;;;;4976412;28;20482;-72
2022/02/08 12:01:19;;;;;;;1.67;1.20;;;11.00;98.20;;;;;;4991108;28;21079;-74
2022/02/08 12:06:50;;;;;;;1.60;1.10;;;11.00;98.20;;;;;;4975376;28;20487;-75
2022/02/08 12:09:33;;;;;;;1.60;1.20;;;11.00;98.20;;;;;;5000689;28;20494;-75
2022/02/08 12:12:45;;;;;;;2.20;1.87;;;11.00;98.20;;;;;;4993026;28;20949;-74
2022/02/08 12:35:08;;;;;;;1.60;1.10;;;11.10;98.20;;;;;;4992431;28;20922;-74
2022/02/08 12:49:32;;;;;;;1.60;1.07;;;11.20;98.20;;;;;;4995202;28;20463;-74
2022/02/08 12:54:47;;;;;;;1.60;1.10;;;11.20;98.20;;;;;;5002154;28;20452;-74
2022/02/08 12:57:23;;;;;;;1.60;1.10;;;11.30;98.20;;;;;;5000718;28;20479;-75
2022/02/08 13:02:47;;;;;;;1.60;1.00;;;11.30;98.20;;;;;;4987777;28;20928;-74
2022/02/08 14:04:17;;;;;;;1.60;1.10;;;11.50;98.20;;;;;;5010437;28;20535;-74
2022/02/08 14:06:52;;;;;;;1.60;1.10;;;11.50;98.20;;;;;;5002398;28;20630;-75
2022/02/08 14:09:31;;;;;;;1.60;1.20;;;11.50;98.20;;;;;;5006434;28;20482;-74
2022/02/08 14:14:49;;;;;;;1.60;1.10;;;11.50;98.20;;;;;;5007215;28;20467;-74
2022/02/08 14:20:40;;;;;;;1.60;1.10;;;11.50;98.20;;;;;;5006894;28;20462;-74
2022/02/08 14:23:28;;;;;;;1.60;1.00;;;11.50;98.20;;;;;;4996731;28;20475;-74
2022/02/08 14:31:55;;;;;;;1.60;1.07;;;11.50;98.20;;;;;;4914532;28;20483;-73
2022/02/08 14:34:55;;;;;;;1.67;1.20;;;11.50;98.20;;;;;;4932809;29;21089;-73
2022/02/08 15:08:07;;;;;;;1.60;1.10;;;11.60;98.20;;;;;;4998216;28;20574;-74
2022/02/08 15:13:04;;;;;;;1.60;1.10;;;11.60;98.20;;;;;;5011919;28;20477;-76
2022/02/08 15:15:41;;;;;;;1.60;1.07;;;11.60;98.20;;;;;;5008092;28;20460;-73
2022/02/08 15:18:08;;;;;;;1.60;1.10;;;11.50;98.20;;;;;;5015071;28;20835;-74
2022/02/08 15:20:35;;;;;;;1.60;1.10;;;11.50;98.20;;;;;;5025682;28;20494;-72
2022/02/08 15:23:04;;;;;;;1.60;1.20;;;11.50;98.20;;;;;;5032348;28;20529;-72
2022/02/08 15:25:33;;;;;;;1.60;1.00;;;11.50;98.20;;;;;;5024696;28;20549;-73
2022/02/08 15:28:02;;;;;;;1.60;1.10;;;11.40;98.20;;;;;;5033252;28;20940;-72
2022/02/08 15:30:29;;;;;;;1.60;1.10;;;11.40;98.20;;;;;;5027368;28;20470;-75
2022/02/08 15:32:58;;;;;;;1.60;1.10;;;11.40;98.20;;;;;;5037245;28;20589;-72
2022/02/08 15:35:25;;;;;;;1.60;1.07;;;11.30;98.20;;;;;;5026261;28;20995;-72
2022/02/08 15:37:52;;;;;;;1.60;1.10;;;11.30;98.20;;;;;;5034571;28;20481;-72
2022/02/08 15:40:20;;;;;;;1.60;1.10;;;11.30;98.20;;;;;;5027327;28;20586;-73
2022/02/08 15:42:47;;;;;;;1.60;1.10;;;11.20;98.20;;;;;;5033749;28;20486;-72
2022/02/08 15:45:20;;;;;;;1.60;1.10;;;11.20;98.20;;;;;;5027537;28;20470;-74
2022/02/08 15:47:47;;;;;;;1.60;1.17;;;11.20;98.20;;;;;;5033729;28;20573;-74
2022/02/08 15:50:21;;;;;;;1.60;1.10;;;11.20;98.20;;;;;;5025881;28;20598;-74
2022/02/08 15:55:52;;;;;;;1.60;1.10;;;11.20;98.20;;;;;;4969352;28;20458;-74
2022/02/08 15:58:24;;;;;;;2.03;1.83;;;11.10;98.20;;;;;;4998968;28;21188;-74
2022/02/08 16:01:08;;;;;;;3.50;1.77;;;11.10;98.20;;;;;;5017518;28;20578;-75
2022/02/08 16:09:11;;;;;;;1.60;1.10;;;11.00;98.20;;;;;;5034464;28;20585;-73
2022/02/08 16:14:38;;;;;;;1.60;1.20;;;10.90;98.20;;;;;;5029806;28;20513;-74
2022/02/08 16:17:17;;;;;;;1.60;1.10;;;10.90;98.20;;;;;;5031265;28;21017;-74
2022/02/08 16:19:56;;;;;;;1.60;1.20;;;10.90;98.20;;;;;;5024243;28;20479;-75
2022/02/08 16:23:13;;;;;;;1.60;1.20;;;10.80;98.20;;;;;;5020310;28;21075;-73
2022/02/08 16:25:51;;;;;;;1.60;1.20;;;10.80;98.20;;;;;;5022086;28;20538;-74
2022/02/08 16:28:26;;;;;;;1.60;1.10;;;10.70;98.20;;;;;;5015078;28;20495;-73
2022/02/08 16:31:22;;;;;;;1.60;1.10;;;10.70;98.20;;;;;;5016151;28;20891;-74
2022/02/08 16:53:37;;;;;;;1.60;1.20;;;10.50;98.20;;;;;;5013747;28;20528;-75
2022/02/08 16:56:15;;;;;;;1.60;1.10;;;10.50;98.20;;;;;;5020926;28;20458;-75
2022/02/08 16:58:48;;;;;;;1.60;1.10;;;10.50;98.20;;;;;;5034759;28;20544;-73
2022/02/08 17:01:18;;;;;;;1.60;1.20;;;10.50;98.20;;;;;;5020568;28;20548;-72
2022/02/08 17:03:47;;;;;;;1.60;1.23;;;10.50;98.20;;;;;;5038340;28;20498;-74
2022/02/08 17:06:16;;;;;;;1.60;1.10;;;10.50;98.20;;;;;;5021521;28;20492;-75
2022/02/08 17:08:44;;;;;;;1.60;1.20;;;10.40;98.20;;;;;;5038734;28;20896;-74
2022/02/08 17:11:17;;;;;;;1.60;1.10;;;10.40;98.20;;;;;;5019886;28;20500;-73
2022/02/08 17:16:34;;;;;;;1.60;1.20;;;10.40;98.20;;;;;;5015370;28;20622;-74
2022/02/08 17:19:32;;;;;;;1.60;1.10;;;10.40;98.20;;;;;;5034043;28;20470;-71
2022/02/08 17:46:57;;;;;;;2.90;2.60;;;10.30;98.20;;;;;;5015752;28;21037;-71
2022/02/08 17:49:24;;;;;;;1.60;1.10;;;10.30;98.20;;;;;;5030458;28;20572;-71
2022/02/08 17:51:51;;;;;;;1.60;1.20;;;10.30;98.20;;;;;;5021545;28;21031;-72
2022/02/08 17:54:19;;;;;;;1.60;1.10;;;10.30;98.20;;;;;;5030395;28;20455;-72
2022/02/08 17:56:46;;;;;;;1.60;1.00;;;10.30;98.20;;;;;;5023410;28;20512;-71
2022/02/08 17:59:14;;;;;;;1.60;1.10;;;10.30;98.20;;;;;;5030753;28;20485;-72
2022/02/08 18:01:41;;;;;;;1.60;1.10;;;10.30;98.20;;;;;;5023024;28;20486;-71
2022/02/08 18:04:10;;;;;;;1.60;1.20;;;10.30;98.20;;;;;;5032332;28;20477;-71
2022/02/08 18:06:37;;;;;;;1.70;1.40;;;10.30;98.20;;;;;;5023387;28;20482;-71
2022/02/08 18:09:04;;;;;;;1.60;1.20;;;10.30;98.20;;;;;;5033945;28;20506;-74
2022/02/08 18:11:37;;;;;;;1.60;1.10;;;10.20;98.20;;;;;;5020634;28;20972;-73
2022/02/08 18:14:06;;;;;;;1.70;1.30;;;10.20;98.20;;;;;;5034216;28;20706;-74